sensor_id;sensor_type;location;lat;lon;timestamp;pressure;altitude;pressure_sealevel;temperature;humidity
19526;BME280;9907;42.676;26.348;2023-02-15T00:00:53;100113.44;;;5.26;63.09
19526;BME280;9907;42.676;26.348;2023-02-15T00:03:20;100116.69;;;5.14;63.76
19526;BME280;9907;42.676;26.348;2023-02-15T00:05:46;100101.91;;;5.10;63.26
19526;BME280;9907;42.676;26.348;2023-02-15T00:08:12;100106.28;;;5.28;62.95
19526;BME280;9907;42.676;26.348;2023-02-15T00:10:37;100108.63;;;5.17;63.08
19526;BME280;9907;42.676;26.348;2023-02-15T00:13:03;100108.91;;;5.11;63.58
19526;BME280;9907;42.676;26.348;2023-02-15T00:15:28;100104.47;;;5.11;63.84
19526;BME280;9907;42.676;26.348;2023-02-15T00:17:54;100110.38;;;4.99;64.31
19526;BME280;9907;42.676;26.348;2023-02-15T00:20:20;100106.19;;;4.95;64.17
19526;BME280;9907;42.676;26.348;2023-02-15T00:22:45;100114.28;;;5.09;63.88
19526;BME280;9907;42.676;26.348;2023-02-15T00:25:11;100103.53;;;4.95;64.40
19526;BME280;9907;42.676;26.348;2023-02-15T00:27:36;100105.66;;;5.06;63.64
19526;BME280;9907;42.676;26.348;2023-02-15T00:30:01;100104.09;;;5.02;63.93
19526;BME280;9907;42.676;26.348;2023-02-15T00:32:27;100110.69;;;5.10;63.80
19526;BME280;9907;42.676;26.348;2023-02-15T00:34:52;100116.78;;;4.95;63.86
19526;BME280;9907;42.676;26.348;2023-02-15T00:37:18;100113.34;;;4.93;64.27
19526;BME280;9907;42.676;26.348;2023-02-15T00:39:43;100103.13;;;5.03;64.05
19526;BME280;9907;42.676;26.348;2023-02-15T00:42:09;100109.38;;;5.19;63.85
19526;BME280;9907;42.676;26.348;2023-02-15T00:44:34;100120.25;;;4.96;63.95
19526;BME280;9907;42.676;26.348;2023-02-15T00:46:59;100119.31;;;4.79;64.81
19526;BME280;9907;42.676;26.348;2023-02-15T00:49:25;100116.03;;;4.91;64.46
19526;BME280;9907;42.676;26.348;2023-02-15T00:51:50;100110.38;;;4.99;64.21
19526;BME280;9907;42.676;26.348;2023-02-15T00:54:16;100110.91;;;4.88;64.56
19526;BME280;9907;42.676;26.348;2023-02-15T00:56:41;100106.56;;;4.87;64.26
19526;BME280;9907;42.676;26.348;2023-02-15T00:59:08;100103.53;;;4.95;64.43
19526;BME280;9907;42.676;26.348;2023-02-15T01:01:34;100111.47;;;4.95;64.37
19526;BME280;9907;42.676;26.348;2023-02-15T01:03:59;100104.84;;;4.86;64.69
19526;BME280;9907;42.676;26.348;2023-02-15T01:06:25;100101.53;;;4.64;65.39
19526;BME280;9907;42.676;26.348;2023-02-15T01:08:50;100098.84;;;4.83;65.26
19526;BME280;9907;42.676;26.348;2023-02-15T01:11:19;100100.16;;;4.91;65.17
19526;BME280;9907;42.676;26.348;2023-02-15T01:13:52;100094.03;;;4.91;65.25
19526;BME280;9907;42.676;26.348;2023-02-15T01:16:19;100102.41;;;4.82;65.35
19526;BME280;9907;42.676;26.348;2023-02-15T01:18:45;100095.72;;;4.92;65.35
19526;BME280;9907;42.676;26.348;2023-02-15T01:21:17;100096.03;;;5.03;64.84
19526;BME280;9907;42.676;26.348;2023-02-15T01:23:43;100097.69;;;5.06;64.73
19526;BME280;9907;42.676;26.348;2023-02-15T01:26:09;100095.81;;;4.90;65.08
19526;BME280;9907;42.676;26.348;2023-02-15T01:28:35;100094.78;;;4.93;64.97
19526;BME280;9907;42.676;26.348;2023-02-15T01:31:10;100102.41;;;4.82;65.84
19526;BME280;9907;42.676;26.348;2023-02-15T01:33:36;100095.97;;;4.87;65.58
19526;BME280;9907;42.676;26.348;2023-02-15T01:36:02;100092.13;;;4.76;65.60
19526;BME280;9907;42.676;26.348;2023-02-15T01:38:28;100102.78;;;4.74;65.77
19526;BME280;9907;42.676;26.348;2023-02-15T01:40:53;100086.88;;;4.57;66.47
19526;BME280;9907;42.676;26.348;2023-02-15T01:43:44;100096.84;;;4.69;66.08
19526;BME280;9907;42.676;26.348;2023-02-15T01:46:12;100095.06;;;4.70;66.60
19526;BME280;9907;42.676;26.348;2023-02-15T01:48:47;100097.28;;;4.79;65.67
19526;BME280;9907;42.676;26.348;2023-02-15T01:51:17;100093.31;;;4.87;65.21
19526;BME280;9907;42.676;26.348;2023-02-15T01:56:42;100109.44;;;4.83;66.20
19526;BME280;9907;42.676;26.348;2023-02-15T01:59:17;100098.13;;;4.79;66.23
19526;BME280;9907;42.676;26.348;2023-02-15T02:01:45;100107.16;;;4.75;66.19
19526;BME280;9907;42.676;26.348;2023-02-15T02:04:33;100104.19;;;4.64;67.08
19526;BME280;9907;42.676;26.348;2023-02-15T02:06:57;100098.75;;;4.49;67.41
19526;BME280;9907;42.676;26.348;2023-02-15T02:09:23;100104.47;;;4.58;67.01
19526;BME280;9907;42.676;26.348;2023-02-15T02:11:49;100106.81;;;4.64;67.03
19526;BME280;9907;42.676;26.348;2023-02-15T02:14:15;100104.34;;;4.61;67.16
19526;BME280;9907;42.676;26.348;2023-02-15T02:17:17;100103.16;;;4.67;66.74
19526;BME280;9907;42.676;26.348;2023-02-15T02:31:14;100124.31;;;4.50;67.63
19526;BME280;9907;42.676;26.348;2023-02-15T02:33:47;100124.34;;;4.48;67.79
19526;BME280;9907;42.676;26.348;2023-02-15T02:36:26;100126.38;;;4.43;67.74
19526;BME280;9907;42.676;26.348;2023-02-15T02:41:32;100125.31;;;4.28;68.03
19526;BME280;9907;42.676;26.348;2023-02-15T02:46:48;100125.63;;;4.58;67.77
19526;BME280;9907;42.676;26.348;2023-02-15T02:49:15;100132.38;;;4.65;67.11
19526;BME280;9907;42.676;26.348;2023-02-15T02:51:41;100143.31;;;4.58;67.51
19526;BME280;9907;42.676;26.348;2023-02-15T02:54:07;100143.09;;;4.43;67.72
19526;BME280;9907;42.676;26.348;2023-02-15T02:56:40;100143.13;;;4.25;68.39
19526;BME280;9907;42.676;26.348;2023-02-15T02:59:19;100149.13;;;4.28;68.97
19526;BME280;9907;42.676;26.348;2023-02-15T03:01:54;100152.19;;;4.38;68.36
19526;BME280;9907;42.676;26.348;2023-02-15T03:04:32;100155.25;;;4.48;68.06
19526;BME280;9907;42.676;26.348;2023-02-15T03:07:01;100156.31;;;4.43;68.32
19526;BME280;9907;42.676;26.348;2023-02-15T03:09:31;100154.53;;;4.44;67.66
19526;BME280;9907;42.676;26.348;2023-02-15T03:12:21;100157.34;;;4.41;67.75
19526;BME280;9907;42.676;26.348;2023-02-15T03:14:52;100156.81;;;4.52;68.00
19526;BME280;9907;42.676;26.348;2023-02-15T03:17:21;100159.13;;;4.40;68.73
19526;BME280;9907;42.676;26.348;2023-02-15T03:19:49;100167.41;;;4.33;69.17
19526;BME280;9907;42.676;26.348;2023-02-15T03:22:21;100173.50;;;4.35;69.31
19526;BME280;9907;42.676;26.348;2023-02-15T03:25:08;100173.00;;;4.46;69.12
19526;BME280;9907;42.676;26.348;2023-02-15T03:27:42;100180.03;;;4.47;69.11
19526;BME280;9907;42.676;26.348;2023-02-15T03:30:09;100177.44;;;4.45;68.72
19526;BME280;9907;42.676;26.348;2023-02-15T03:32:38;100179.41;;;4.40;68.98
19526;BME280;9907;42.676;26.348;2023-02-15T03:35:05;100186.28;;;4.44;68.18
19526;BME280;9907;42.676;26.348;2023-02-15T03:37:48;100184.72;;;4.40;68.80
19526;BME280;9907;42.676;26.348;2023-02-15T03:40:28;100192.25;;;4.49;68.62
19526;BME280;9907;42.676;26.348;2023-02-15T03:43:37;100185.56;;;4.40;68.32
19526;BME280;9907;42.676;26.348;2023-02-15T03:46:09;100193.97;;;4.50;68.46
19526;BME280;9907;42.676;26.348;2023-02-15T03:48:40;100190.88;;;4.59;68.07
19526;BME280;9907;42.676;26.348;2023-02-15T03:51:15;100195.38;;;4.57;68.53
19526;BME280;9907;42.676;26.348;2023-02-15T03:56:33;100188.00;;;4.45;69.06
19526;BME280;9907;42.676;26.348;2023-02-15T03:58:59;100201.09;;;4.48;69.53
19526;BME280;9907;42.676;26.348;2023-02-15T04:01:48;100195.91;;;4.47;69.09
19526;BME280;9907;42.676;26.348;2023-02-15T04:04:35;100198.09;;;4.56;68.44
19526;BME280;9907;42.676;26.348;2023-02-15T04:07:02;100202.41;;;4.39;69.03
19526;BME280;9907;42.676;26.348;2023-02-15T04:09:28;100206.97;;;4.36;69.03
19526;BME280;9907;42.676;26.348;2023-02-15T04:12:12;100199.72;;;4.58;68.35
19526;BME280;9907;42.676;26.348;2023-02-15T04:14:37;100202.31;;;4.41;69.39
19526;BME280;9907;42.676;26.348;2023-02-15T04:17:22;100204.03;;;4.42;69.09
19526;BME280;9907;42.676;26.348;2023-02-15T04:19:47;100210.09;;;4.63;68.72
19526;BME280;9907;42.676;26.348;2023-02-15T04:22:32;100214.06;;;4.54;68.50
19526;BME280;9907;42.676;26.348;2023-02-15T04:25:16;100212.13;;;4.39;69.60
19526;BME280;9907;42.676;26.348;2023-02-15T04:27:45;100220.78;;;4.43;69.79
19526;BME280;9907;42.676;26.348;2023-02-15T04:30:12;100226.78;;;4.46;69.81
19526;BME280;9907;42.676;26.348;2023-02-15T04:32:38;100235.22;;;4.54;68.95
19526;BME280;9907;42.676;26.348;2023-02-15T04:35:05;100233.06;;;4.62;69.02
19526;BME280;9907;42.676;26.348;2023-02-15T04:37:31;100239.38;;;4.60;68.62
19526;BME280;9907;42.676;26.348;2023-02-15T04:39:56;100228.56;;;4.64;68.53
19526;BME280;9907;42.676;26.348;2023-02-15T04:42:24;100242.50;;;4.49;69.11
19526;BME280;9907;42.676;26.348;2023-02-15T04:44:51;100228.63;;;4.44;69.49
19526;BME280;9907;42.676;26.348;2023-02-15T04:47:17;100247.81;;;4.49;69.51
19526;BME280;9907;42.676;26.348;2023-02-15T04:49:42;100239.88;;;4.49;69.76
19526;BME280;9907;42.676;26.348;2023-02-15T04:52:08;100244.38;;;4.47;69.72
19526;BME280;9907;42.676;26.348;2023-02-15T04:54:33;100245.81;;;4.54;69.33
19526;BME280;9907;42.676;26.348;2023-02-15T04:56:59;100251.69;;;4.61;68.80
19526;BME280;9907;42.676;26.348;2023-02-15T04:59:24;100256.88;;;4.62;68.61
19526;BME280;9907;42.676;26.348;2023-02-15T05:01:50;100253.41;;;4.62;68.87
19526;BME280;9907;42.676;26.348;2023-02-15T05:04:16;100253.97;;;4.68;68.35
19526;BME280;9907;42.676;26.348;2023-02-15T05:06:41;100249.91;;;4.61;68.31
19526;BME280;9907;42.676;26.348;2023-02-15T05:09:07;100263.13;;;4.61;68.66
19526;BME280;9907;42.676;26.348;2023-02-15T05:11:32;100271.19;;;4.58;69.04
19526;BME280;9907;42.676;26.348;2023-02-15T05:13:57;100266.53;;;4.45;69.18
19526;BME280;9907;42.676;26.348;2023-02-15T05:16:23;100272.81;;;4.42;69.26
19526;BME280;9907;42.676;26.348;2023-02-15T05:18:49;100270.56;;;4.53;69.10
19526;BME280;9907;42.676;26.348;2023-02-15T05:21:14;100274.50;;;4.63;68.28
19526;BME280;9907;42.676;26.348;2023-02-15T05:23:42;100278.34;;;4.56;69.38
19526;BME280;9907;42.676;26.348;2023-02-15T05:26:11;100280.59;;;4.65;68.52
19526;BME280;9907;42.676;26.348;2023-02-15T05:28:55;100287.31;;;4.72;68.11
19526;BME280;9907;42.676;26.348;2023-02-15T05:31:21;100289.00;;;4.73;68.15
19526;BME280;9907;42.676;26.348;2023-02-15T05:33:47;100289.16;;;4.70;67.99
19526;BME280;9907;42.676;26.348;2023-02-15T05:36:12;100292.53;;;4.74;67.86
19526;BME280;9907;42.676;26.348;2023-02-15T05:38:38;100293.94;;;4.62;68.10
19526;BME280;9907;42.676;26.348;2023-02-15T05:41:08;100298.84;;;4.51;69.07
19526;BME280;9907;42.676;26.348;2023-02-15T05:43:34;100303.88;;;4.57;68.60
19526;BME280;9907;42.676;26.348;2023-02-15T05:46:00;100304.88;;;4.73;68.54
19526;BME280;9907;42.676;26.348;2023-02-15T05:48:27;100292.81;;;4.86;68.06
19526;BME280;9907;42.676;26.348;2023-02-15T05:51:01;100286.66;;;5.05;67.07
19526;BME280;9907;42.676;26.348;2023-02-15T05:53:29;100300.22;;;4.99;66.82
19526;BME280;9907;42.676;26.348;2023-02-15T05:55:55;100305.75;;;4.74;67.23
19526;BME280;9907;42.676;26.348;2023-02-15T05:58:31;100301.31;;;4.74;67.61
19526;BME280;9907;42.676;26.348;2023-02-15T06:00:56;100311.84;;;4.76;67.96
19526;BME280;9907;42.676;26.348;2023-02-15T06:03:23;100311.91;;;4.74;67.88
19526;BME280;9907;42.676;26.348;2023-02-15T06:05:51;100311.72;;;4.79;67.59
19526;BME280;9907;42.676;26.348;2023-02-15T06:08:17;100311.63;;;4.80;67.48
19526;BME280;9907;42.676;26.348;2023-02-15T06:10:42;100309.34;;;4.91;67.49
19526;BME280;9907;42.676;26.348;2023-02-15T06:13:08;100310.91;;;4.96;67.43
19526;BME280;9907;42.676;26.348;2023-02-15T06:15:33;100314.22;;;5.01;66.79
19526;BME280;9907;42.676;26.348;2023-02-15T06:17:59;100312.34;;;5.03;66.51
19526;BME280;9907;42.676;26.348;2023-02-15T06:20:24;100315.47;;;5.29;65.51
19526;BME280;9907;42.676;26.348;2023-02-15T06:22:50;100318.19;;;5.47;65.64
19526;BME280;9907;42.676;26.348;2023-02-15T06:25:16;100331.28;;;5.50;64.90
19526;BME280;9907;42.676;26.348;2023-02-15T06:27:42;100334.16;;;5.45;64.73
19526;BME280;9907;42.676;26.348;2023-02-15T06:30:08;100332.81;;;5.72;63.60
19526;BME280;9907;42.676;26.348;2023-02-15T06:32:34;100335.94;;;5.80;63.55
19526;BME280;9907;42.676;26.348;2023-02-15T06:35:00;100324.25;;;5.84;63.62
19526;BME280;9907;42.676;26.348;2023-02-15T06:37:25;100332.34;;;5.81;63.81
19526;BME280;9907;42.676;26.348;2023-02-15T06:39:51;100332.06;;;5.87;64.08
19526;BME280;9907;42.676;26.348;2023-02-15T06:42:16;100333.56;;;6.10;63.53
19526;BME280;9907;42.676;26.348;2023-02-15T06:44:43;100331.78;;;6.28;62.12
19526;BME280;9907;42.676;26.348;2023-02-15T06:47:09;100330.25;;;6.57;61.88
19526;BME280;9907;42.676;26.348;2023-02-15T06:49:35;100336.22;;;6.77;60.98
19526;BME280;9907;42.676;26.348;2023-02-15T06:52:01;100333.91;;;6.54;61.68
19526;BME280;9907;42.676;26.348;2023-02-15T06:54:26;100337.81;;;6.64;60.88
19526;BME280;9907;42.676;26.348;2023-02-15T06:56:52;100340.16;;;6.70;59.81
19526;BME280;9907;42.676;26.348;2023-02-15T06:59:17;100341.19;;;6.51;60.38
19526;BME280;9907;42.676;26.348;2023-02-15T07:01:46;100332.91;;;6.57;60.63
19526;BME280;9907;42.676;26.348;2023-02-15T07:04:11;100337.44;;;6.88;59.98
19526;BME280;9907;42.676;26.348;2023-02-15T07:06:37;100333.94;;;6.87;59.14
19526;BME280;9907;42.676;26.348;2023-02-15T07:09:02;100344.97;;;6.79;59.32
19526;BME280;9907;42.676;26.348;2023-02-15T07:11:30;100338.56;;;6.83;59.19
19526;BME280;9907;42.676;26.348;2023-02-15T07:14:14;100337.53;;;6.86;59.43
19526;BME280;9907;42.676;26.348;2023-02-15T07:16:40;100337.88;;;6.96;58.47
19526;BME280;9907;42.676;26.348;2023-02-15T07:19:05;100336.88;;;7.14;58.73
19526;BME280;9907;42.676;26.348;2023-02-15T07:21:32;100332.06;;;7.05;58.45
19526;BME280;9907;42.676;26.348;2023-02-15T07:23:58;100333.19;;;7.01;58.11
19526;BME280;9907;42.676;26.348;2023-02-15T07:26:24;100329.41;;;7.05;58.80
19526;BME280;9907;42.676;26.348;2023-02-15T07:28:50;100326.41;;;7.11;57.95
19526;BME280;9907;42.676;26.348;2023-02-15T07:31:15;100321.81;;;7.30;56.87
19526;BME280;9907;42.676;26.348;2023-02-15T07:33:41;100333.97;;;7.18;58.43
19526;BME280;9907;42.676;26.348;2023-02-15T07:36:07;100325.75;;;7.23;57.69
19526;BME280;9907;42.676;26.348;2023-02-15T07:38:38;100328.75;;;7.48;56.49
19526;BME280;9907;42.676;26.348;2023-02-15T07:41:09;100322.91;;;7.57;56.20
19526;BME280;9907;42.676;26.348;2023-02-15T07:43:36;100325.56;;;7.26;57.22
19526;BME280;9907;42.676;26.348;2023-02-15T07:46:05;100310.63;;;7.39;57.37
19526;BME280;9907;42.676;26.348;2023-02-15T07:48:33;100311.91;;;7.48;56.57
19526;BME280;9907;42.676;26.348;2023-02-15T07:51:04;100317.31;;;6.83;56.67
19526;BME280;9907;42.676;26.348;2023-02-15T07:53:30;100312.28;;;6.62;57.59
19526;BME280;9907;42.676;26.348;2023-02-15T07:56:07;100314.94;;;6.95;56.80
19526;BME280;9907;42.676;26.348;2023-02-15T07:58:34;100315.19;;;7.21;57.00
19526;BME280;9907;42.676;26.348;2023-02-15T08:03:46;100315.88;;;7.56;55.91
19526;BME280;9907;42.676;26.348;2023-02-15T08:06:12;100316.91;;;7.83;55.71
19526;BME280;9907;42.676;26.348;2023-02-15T08:08:39;100319.66;;;7.98;55.03
19526;BME280;9907;42.676;26.348;2023-02-15T08:11:05;100321.63;;;7.64;56.29
19526;BME280;9907;42.676;26.348;2023-02-15T08:13:57;100319.88;;;7.63;55.66
19526;BME280;9907;42.676;26.348;2023-02-15T08:16:37;100327.53;;;7.22;55.92
19526;BME280;9907;42.676;26.348;2023-02-15T08:19:06;100323.78;;;7.26;55.64
19526;BME280;9907;42.676;26.348;2023-02-15T08:21:33;100319.75;;;7.35;56.67
19526;BME280;9907;42.676;26.348;2023-02-15T08:23:59;100314.56;;;7.63;55.74
19526;BME280;9907;42.676;26.348;2023-02-15T08:26:26;100324.88;;;7.38;55.12
19526;BME280;9907;42.676;26.348;2023-02-15T08:28:52;100324.03;;;7.38;54.90
19526;BME280;9907;42.676;26.348;2023-02-15T08:31:18;100325.75;;;7.23;55.28
19526;BME280;9907;42.676;26.348;2023-02-15T08:33:46;100321.97;;;7.27;55.96
19526;BME280;9907;42.676;26.348;2023-02-15T08:36:14;100333.03;;;7.35;55.53
19526;BME280;9907;42.676;26.348;2023-02-15T08:38:40;100323.50;;;7.47;55.37
19526;BME280;9907;42.676;26.348;2023-02-15T08:41:26;100334.84;;;7.34;55.17
19526;BME280;9907;42.676;26.348;2023-02-15T08:43:54;100333.28;;;7.15;55.52
19526;BME280;9907;42.676;26.348;2023-02-15T08:46:21;100335.75;;;7.18;55.42
19526;BME280;9907;42.676;26.348;2023-02-15T08:48:46;100331.63;;;6.97;55.62
19526;BME280;9907;42.676;26.348;2023-02-15T08:51:23;100328.47;;;6.90;55.95
19526;BME280;9907;42.676;26.348;2023-02-15T08:53:55;100335.66;;;7.04;55.52
19526;BME280;9907;42.676;26.348;2023-02-15T08:56:26;100327.34;;;6.94;55.58
19526;BME280;9907;42.676;26.348;2023-02-15T08:58:55;100333.66;;;6.92;55.04
19526;BME280;9907;42.676;26.348;2023-02-15T09:01:23;100332.66;;;6.94;55.69
19526;BME280;9907;42.676;26.348;2023-02-15T09:03:51;100330.88;;;7.10;54.86
19526;BME280;9907;42.676;26.348;2023-02-15T09:06:19;100332.06;;;7.05;54.62
19526;BME280;9907;42.676;26.348;2023-02-15T09:08:45;100321.72;;;7.31;54.55
19526;BME280;9907;42.676;26.348;2023-02-15T09:11:11;100324.38;;;7.31;53.92
19526;BME280;9907;42.676;26.348;2023-02-15T09:13:38;100321.97;;;7.27;54.35
19526;BME280;9907;42.676;26.348;2023-02-15T09:16:07;100330.13;;;7.24;53.53
19526;BME280;9907;42.676;26.348;2023-02-15T09:18:37;100316.13;;;7.36;53.47
19526;BME280;9907;42.676;26.348;2023-02-15T09:21:04;100317.06;;;7.66;53.38
19526;BME280;9907;42.676;26.348;2023-02-15T09:23:30;100317.22;;;7.79;53.45
19526;BME280;9907;42.676;26.348;2023-02-15T09:25:55;100325.91;;;7.51;52.91
19526;BME280;9907;42.676;26.348;2023-02-15T09:28:21;100306.34;;;7.52;53.94
19526;BME280;9907;42.676;26.348;2023-02-15T09:30:49;100309.53;;;7.43;53.85
19526;BME280;9907;42.676;26.348;2023-02-15T09:33:14;100311.66;;;7.52;54.37
19526;BME280;9907;42.676;26.348;2023-02-15T09:35:40;100300.50;;;7.61;53.25
19526;BME280;9907;42.676;26.348;2023-02-15T09:38:05;100301.63;;;7.87;53.60
19526;BME280;9907;42.676;26.348;2023-02-15T09:40:36;100299.94;;;7.86;54.22
19526;BME280;9907;42.676;26.348;2023-02-15T09:43:21;100295.50;;;7.71;53.18
19526;BME280;9907;42.676;26.348;2023-02-15T09:48:26;100299.59;;;7.76;53.77
19526;BME280;9907;42.676;26.348;2023-02-15T10:06:44;100281.22;;;7.88;53.59
19526;BME280;9907;42.676;26.348;2023-02-15T10:09:46;100269.63;;;7.89;53.65
19526;BME280;9907;42.676;26.348;2023-02-15T10:12:36;100262.81;;;7.99;52.70
19526;BME280;9907;42.676;26.348;2023-02-15T10:31:46;100241.41;;;7.86;52.06
19526;BME280;9907;42.676;26.348;2023-02-15T10:36:53;100242.16;;;7.58;52.43
19526;BME280;9907;42.676;26.348;2023-02-15T10:39:27;100242.50;;;7.68;52.58
19526;BME280;9907;42.676;26.348;2023-02-15T10:47:49;100225.88;;;7.64;52.37
19526;BME280;9907;42.676;26.348;2023-02-15T11:06:44;100218.25;;;8.02;51.34
19526;BME280;9907;42.676;26.348;2023-02-15T11:09:14;100212.97;;;8.16;51.54
19526;BME280;9907;42.676;26.348;2023-02-15T11:11:45;100218.75;;;8.09;50.71
19526;BME280;9907;42.676;26.348;2023-02-15T11:14:39;100215.31;;;8.07;51.06
19526;BME280;9907;42.676;26.348;2023-02-15T11:17:12;100210.56;;;7.98;51.35
19526;BME280;9907;42.676;26.348;2023-02-15T11:20:22;100200.84;;;7.97;50.51
19526;BME280;9907;42.676;26.348;2023-02-15T11:22:37;100206.47;;;8.06;50.83
19526;BME280;9907;42.676;26.348;2023-02-15T11:25:16;100202.56;;;7.98;50.35
19526;BME280;9907;42.676;26.348;2023-02-15T11:27:43;100204.19;;;8.00;50.67
19526;BME280;9907;42.676;26.348;2023-02-15T11:30:19;100209.50;;;7.86;51.12
19526;BME280;9907;42.676;26.348;2023-02-15T11:32:48;100197.59;;;7.92;50.93
19526;BME280;9907;42.676;26.348;2023-02-15T11:35:32;100205.78;;;7.89;50.62
19526;BME280;9907;42.676;26.348;2023-02-15T11:38:07;100197.31;;;7.82;49.92
19526;BME280;9907;42.676;26.348;2023-02-15T11:40:41;100194.38;;;7.87;50.75
19526;BME280;9907;42.676;26.348;2023-02-15T11:43:29;100179.84;;;8.06;50.80
19526;BME280;9907;42.676;26.348;2023-02-15T11:45:58;100178.72;;;8.24;50.89
19526;BME280;9907;42.676;26.348;2023-02-15T11:48:23;100186.91;;;8.21;50.50
19526;BME280;9907;42.676;26.348;2023-02-15T11:50:49;100190.13;;;8.12;50.47
19526;BME280;9907;42.676;26.348;2023-02-15T11:53:19;100179.19;;;8.03;51.23
19526;BME280;9907;42.676;26.348;2023-02-15T11:55:48;100172.38;;;8.13;51.36
19526;BME280;9907;42.676;26.348;2023-02-15T12:01:09;100179.09;;;8.18;50.94
19526;BME280;9907;42.676;26.348;2023-02-15T12:03:53;100179.97;;;8.05;50.67
19526;BME280;9907;42.676;26.348;2023-02-15T12:06:26;100163.88;;;8.06;50.73
19526;BME280;9907;42.676;26.348;2023-02-15T12:11:49;100159.53;;;8.05;51.15
19526;BME280;9907;42.676;26.348;2023-02-15T12:14:15;100162.06;;;8.21;50.90
19526;BME280;9907;42.676;26.348;2023-02-15T12:16:49;100153.81;;;8.25;50.96
19526;BME280;9907;42.676;26.348;2023-02-15T12:19:33;100152.22;;;8.23;51.15
19526;BME280;9907;42.676;26.348;2023-02-15T12:22:03;100160.94;;;8.25;50.92
19526;BME280;9907;42.676;26.348;2023-02-15T12:24:36;100164.09;;;8.31;50.72
19526;BME280;9907;42.676;26.348;2023-02-15T12:27:19;100153.44;;;8.31;50.40
19526;BME280;9907;42.676;26.348;2023-02-15T12:29:53;100147.97;;;8.35;50.87
19526;BME280;9907;42.676;26.348;2023-02-15T12:32:26;100145.19;;;8.36;50.80
19526;BME280;9907;42.676;26.348;2023-02-15T12:35:14;100149.47;;;8.39;50.85
19526;BME280;9907;42.676;26.348;2023-02-15T12:43:37;100158.94;;;8.43;49.93
19526;BME280;9907;42.676;26.348;2023-02-15T12:46:23;100154.03;;;8.37;49.66
19526;BME280;9907;42.676;26.348;2023-02-15T12:49:19;100154.69;;;8.40;50.42
19526;BME280;9907;42.676;26.348;2023-02-15T12:51:49;100150.78;;;8.31;50.27
19526;BME280;9907;42.676;26.348;2023-02-15T12:54:40;100148.59;;;8.24;50.84
19526;BME280;9907;42.676;26.348;2023-02-15T13:00:00;100152.88;;;8.12;51.68
19526;BME280;9907;42.676;26.348;2023-02-15T13:07:50;100159.41;;;8.21;50.44
19526;BME280;9907;42.676;26.348;2023-02-15T13:10:23;100147.63;;;8.25;50.96
19526;BME280;9907;42.676;26.348;2023-02-15T13:12:49;100141.84;;;8.32;51.18
19526;BME280;9907;42.676;26.348;2023-02-15T13:15:32;100138.31;;;8.46;50.62
19526;BME280;9907;42.676;26.348;2023-02-15T13:18:00;100137.53;;;8.58;51.07
19526;BME280;9907;42.676;26.348;2023-02-15T13:20:27;100132.88;;;8.62;51.14
19526;BME280;9907;42.676;26.348;2023-02-15T13:23:03;100148.66;;;8.65;51.06
19526;BME280;9907;42.676;26.348;2023-02-15T13:25:44;100142.50;;;8.64;50.24
19526;BME280;9907;42.676;26.348;2023-02-15T13:28:13;100142.78;;;8.60;49.98
19526;BME280;9907;42.676;26.348;2023-02-15T13:30:44;100140.59;;;8.52;50.13
19526;BME280;9907;42.676;26.348;2023-02-15T13:33:23;100138.22;;;8.48;49.19
19526;BME280;9907;42.676;26.348;2023-02-15T13:41:14;100139.50;;;8.42;49.51
19526;BME280;9907;42.676;26.348;2023-02-15T13:44:15;100144.44;;;8.34;50.25
19526;BME280;9907;42.676;26.348;2023-02-15T13:49:39;100137.47;;;8.46;50.03
19526;BME280;9907;42.676;26.348;2023-02-15T13:57:44;100135.97;;;8.42;49.90
19526;BME280;9907;42.676;26.348;2023-02-15T14:16:47;100133.97;;;8.45;49.37
19526;BME280;9907;42.676;26.348;2023-02-15T14:21:57;100138.91;;;8.37;50.29
19526;BME280;9907;42.676;26.348;2023-02-15T14:25:03;100140.63;;;8.38;50.17
19526;BME280;9907;42.676;26.348;2023-02-15T14:30:22;100131.66;;;8.39;50.38
19526;BME280;9907;42.676;26.348;2023-02-15T14:32:53;100134.25;;;8.41;50.20
19526;BME280;9907;42.676;26.348;2023-02-15T14:35:23;100126.53;;;8.36;50.05
19526;BME280;9907;42.676;26.348;2023-02-15T14:37:55;100131.13;;;8.34;49.80
19526;BME280;9907;42.676;26.348;2023-02-15T14:49:21;100134.59;;;8.20;49.70
19526;BME280;9907;42.676;26.348;2023-02-15T14:56:45;100128.91;;;8.26;50.25
19526;BME280;9907;42.676;26.348;2023-02-15T14:59:16;100134.13;;;8.28;49.88
19526;BME280;9907;42.676;26.348;2023-02-15T15:01:52;100136.13;;;8.24;50.73
19526;BME280;9907;42.676;26.348;2023-02-15T15:07:48;100126.34;;;8.25;50.41
19526;BME280;9907;42.676;26.348;2023-02-15T15:10:40;100135.09;;;8.27;51.32
19526;BME280;9907;42.676;26.348;2023-02-15T15:18:54;100141.19;;;8.15;51.33
19526;BME280;9907;42.676;26.348;2023-02-15T15:27:40;100157.03;;;8.02;52.24
19526;BME280;9907;42.676;26.348;2023-02-15T15:38:45;100158.38;;;8.09;52.43
19526;BME280;9907;42.676;26.348;2023-02-15T15:41:23;100155.03;;;8.06;52.74
19526;BME280;9907;42.676;26.348;2023-02-15T15:47:08;100163.22;;;8.03;52.89
19526;BME280;9907;42.676;26.348;2023-02-15T15:49:39;100164.66;;;7.94;52.47
19526;BME280;9907;42.676;26.348;2023-02-15T15:52:18;100164.75;;;7.93;52.63
19526;BME280;9907;42.676;26.348;2023-02-15T15:54:46;100166.94;;;7.86;52.81
19526;BME280;9907;42.676;26.348;2023-02-15T15:57:35;100158.28;;;7.82;53.51
19526;BME280;9907;42.676;26.348;2023-02-15T16:00:04;100159.03;;;7.84;53.47
19526;BME280;9907;42.676;26.348;2023-02-15T16:02:31;100159.28;;;7.66;54.31
19526;BME280;9907;42.676;26.348;2023-02-15T16:05:09;100161.38;;;7.61;53.89
19526;BME280;9907;42.676;26.348;2023-02-15T16:07:34;100166.50;;;7.64;54.33
19526;BME280;9907;42.676;26.348;2023-02-15T16:10:06;100171.56;;;7.68;53.86
19526;BME280;9907;42.676;26.348;2023-02-15T16:12:37;100174.22;;;7.68;54.68
19526;BME280;9907;42.676;26.348;2023-02-15T16:15:14;100171.59;;;7.53;54.46
19526;BME280;9907;42.676;26.348;2023-02-15T16:17:41;100171.16;;;7.60;54.60
19526;BME280;9907;42.676;26.348;2023-02-15T16:20:31;100174.75;;;7.59;54.98